Admiral Hornblower — WSQ7555 — position and weather

sailwx.info

Track history (hours):
 
Tides and Currents Weather Stations Pressure Air Temp Water Temp Dewpoint Dewpoint Depression Visibility Wind Speed Wind Dir Waves Ship Positions

Admiral Hornblower

Owner: Hornblower Cruises and Events, San Diego, CA. More information available from US FCC via Universal Licensing System and Coast Guard Vessel Documentation Center.

Last reported at 2017-Sep-25 04:59 UTC. Time now 2017-Sep-25 15:11 UTC.
Position N 32°43' W 117°10'.

Length 46 m; draft 3.6 m.

Type: Passenger vessel. MMSI: 366970120.

Date/timePositionNaut miles runAvg speedWind from/ knotsBaromVisibWave heightAir tempDewpointWater temp
2017-Sep-25 04:59N 32°43' W 117°10'2 3.9
2017-Sep-25 04:30N 32°42' W 117°09'1 2.2
2017-Sep-25 04:00N 32°41' W 117°08'3 6.5
2017-Sep-25 03:30N 32°43' W 117°12'3 5.0
2017-Sep-25 03:00N 32°42' W 117°14'3 0.2
2017-Sep-24 06:59N 32°43' W 117°10'0 0.9
2017-Sep-24 06:30N 32°43' W 117°10'0 0.3
2017-Sep-24 05:56N 32°43' W 117°11'1 2.8
2017-Sep-24 05:30N 32°42' W 117°10'4 7.2
2017-Sep-24 05:00N 32°41' W 117°14'3 2.5
2017-Sep-24 03:43N 32°43' W 117°10'0 0.0
2017-Sep-24 03:25N 32°43' W 117°10'2 2.4
2017-Sep-24 02:41N 32°42' W 117°09'0 1.4
2017-Sep-24 02:30N 32°41' W 117°09'4 7.6
2017-Sep-24 02:00N 32°43' W 117°13'0 0.6
2017-Sep-24 01:30N 32°43' W 117°13'2 1.9
2017-Sep-24 00:25N 32°43' W 117°11'0 0.1
2017-Sep-23 19:50N 32°43' W 117°11'3 0.1
2017-Sep-22 02:00N 32°42' W 117°14'3 1.3
2017-Sep-21 23:29N 32°42' W 117°10'1 1.1
2017-Sep-21 22:35N 32°43' W 117°10'0 5.1
2017-Sep-21 22:30N 32°43' W 117°11'2 2.9
2017-Sep-21 21:55N 32°42' W 117°09'1 1.7
2017-Sep-21 21:30N 32°41' W 117°10'1 1.1
2017-Sep-21 20:36N 32°41' W 117°09'1 6.1
2017-Sep-21 20:30N 32°41' W 117°09'0 0.7
2017-Sep-21 20:00N 32°42' W 117°09'4 7.4
2017-Sep-21 19:30N 32°42' W 117°14'1 2.6
2017-Sep-21 19:01N 32°43' W 117°13'2 3.4
2017-Sep-21 18:28N 32°43' W 117°10'0 0.3
2017-Sep-21 17:58N 32°43' W 117°11'0 0.0
2017-Sep-21 04:46N 32°43' W 117°11'3 3.1
2017-Sep-21 03:54N 32°41' W 117°09'2 6.2
2017-Sep-21 03:30N 32°43' W 117°11'3 5.2
2017-Sep-21 03:00N 32°42' W 117°14'1 2.7
2017-Sep-21 02:30N 32°43' W 117°13'2 0.1
2017-Sep-20 04:48N 32°43' W 117°11'2 4.9
2017-Sep-20 04:19N 32°41' W 117°09'0 0.3
2017-Sep-20 03:57N 32°41' W 117°09'2 3.2
2017-Sep-20 03:26N 32°42' W 117°11'3 6.5
2017-Sep-20 03:00N 32°42' W 117°14'2 3.5
2017-Sep-20 02:30N 32°43' W 117°13'2 0.4
2017-Sep-19 21:41N 32°43' W 117°11'1 6.4
2017-Sep-19 21:30N 32°43' W 117°12'1 0.5
2017-Sep-19 19:06N 32°43' W 117°11'1 9.6
2017-Sep-19 19:00N 32°43' W 117°12'0 0.9
2017-Sep-19 18:29N 32°43' W 117°11'  
2017-Sep-17 06:58N 32°43' W 117°11'0 0.2
2017-Sep-17 06:14N 32°43' W 117°10'0 0.5
2017-Sep-17 05:57N 32°43' W 117°11'2 5.3
2017-Sep-17 05:29N 32°41' W 117°09'3 5.6
2017-Sep-17 05:00N 32°43' W 117°11'1 1.5
2017-Sep-17 04:30N 32°43' W 117°12'1 0.6
2017-Sep-17 02:54N 32°43' W 117°11'2 4.2
2017-Sep-17 02:24N 32°41' W 117°09'0 0.8
2017-Sep-17 02:00N 32°41' W 117°10'2 1.0
2017-Sep-16 23:48N 32°43' W 117°11'  
Track history (hours):
 
Tides and Currents Weather Stations Pressure Air Temp Water Temp Dewpoint Dewpoint Depression Visibility Wind Speed Wind Dir Waves Ship Positions

Admiral Hornblower

Owner: Hornblower Cruises and Events, San Diego, CA. More information available from US FCC via Universal Licensing System and Coast Guard Vessel Documentation Center.

Last reported at 2017-Sep-25 04:59 UTC. Time now 2017-Sep-25 15:11 UTC.
Position N 32°43' W 117°10'.

Length 46 m; draft 3.6 m.

Type: Passenger vessel. MMSI: 366970120.

Date/timePositionNaut miles runAvg speedWind from/ knotsBaromVisibWave heightAir tempDewpointWater temp
2017-Sep-25 04:59N 32°43' W 117°10'2 3.9
2017-Sep-25 04:30N 32°42' W 117°09'1 2.2
2017-Sep-25 04:00N 32°41' W 117°08'3 6.5
2017-Sep-25 03:30N 32°43' W 117°12'3 5.0
2017-Sep-25 03:00N 32°42' W 117°14'3 0.2
2017-Sep-24 06:59N 32°43' W 117°10'0 0.9
2017-Sep-24 06:30N 32°43' W 117°10'0 0.3
2017-Sep-24 05:56N 32°43' W 117°11'1 2.8
2017-Sep-24 05:30N 32°42' W 117°10'4 7.2
2017-Sep-24 05:00N 32°41' W 117°14'3 2.5
2017-Sep-24 03:43N 32°43' W 117°10'0 0.0
2017-Sep-24 03:25N 32°43' W 117°10'2 2.4
2017-Sep-24 02:41N 32°42' W 117°09'0 1.4
2017-Sep-24 02:30N 32°41' W 117°09'4 7.6
2017-Sep-24 02:00N 32°43' W 117°13'0 0.6
2017-Sep-24 01:30N 32°43' W 117°13'2 1.9
2017-Sep-24 00:25N 32°43' W 117°11'0 0.1
2017-Sep-23 19:50N 32°43' W 117°11'3 0.1
2017-Sep-22 02:00N 32°42' W 117°14'3 1.3
2017-Sep-21 23:29N 32°42' W 117°10'1 1.1
2017-Sep-21 22:35N 32°43' W 117°10'0 5.1
2017-Sep-21 22:30N 32°43' W 117°11'2 2.9
2017-Sep-21 21:55N 32°42' W 117°09'1 1.7
2017-Sep-21 21:30N 32°41' W 117°10'1 1.1
2017-Sep-21 20:36N 32°41' W 117°09'1 6.1
2017-Sep-21 20:30N 32°41' W 117°09'0 0.7
2017-Sep-21 20:00N 32°42' W 117°09'4 7.4
2017-Sep-21 19:30N 32°42' W 117°14'1 2.6
2017-Sep-21 19:01N 32°43' W 117°13'2 3.4
2017-Sep-21 18:28N 32°43' W 117°10'0 0.3
2017-Sep-21 17:58N 32°43' W 117°11'0 0.0
2017-Sep-21 04:46N 32°43' W 117°11'3 3.1
2017-Sep-21 03:54N 32°41' W 117°09'2 6.2
2017-Sep-21 03:30N 32°43' W 117°11'3 5.2
2017-Sep-21 03:00N 32°42' W 117°14'1 2.7
2017-Sep-21 02:30N 32°43' W 117°13'2 0.1
2017-Sep-20 04:48N 32°43' W 117°11'2 4.9
2017-Sep-20 04:19N 32°41' W 117°09'0 0.3
2017-Sep-20 03:57N 32°41' W 117°09'2 3.2
2017-Sep-20 03:26N 32°42' W 117°11'3 6.5
2017-Sep-20 03:00N 32°42' W 117°14'2 3.5
2017-Sep-20 02:30N 32°43' W 117°13'2 0.4
2017-Sep-19 21:41N 32°43' W 117°11'1 6.4
2017-Sep-19 21:30N 32°43' W 117°12'1 0.5
2017-Sep-19 19:06N 32°43' W 117°11'1 9.6
2017-Sep-19 19:00N 32°43' W 117°12'0 0.9
2017-Sep-19 18:29N 32°43' W 117°11'  
2017-Sep-17 06:58N 32°43' W 117°11'0 0.2
2017-Sep-17 06:14N 32°43' W 117°10'0 0.5
2017-Sep-17 05:57N 32°43' W 117°11'2 5.3
2017-Sep-17 05:29N 32°41' W 117°09'3 5.6
2017-Sep-17 05:00N 32°43' W 117°11'1 1.5
2017-Sep-17 04:30N 32°43' W 117°12'1 0.6
2017-Sep-17 02:54N 32°43' W 117°11'2 4.2
2017-Sep-17 02:24N 32°41' W 117°09'0 0.8
2017-Sep-17 02:00N 32°41' W 117°10'2 1.0
2017-Sep-16 23:48N 32°43' W 117°11'  

Dump ship's entire track history